Time;durP1;ratioP1;P1;durP2;ratioP2;P2;SDS_P1;SDS_P2;PMS_P1;PMS_P2;Temp;Humidity;BMP_temperature;BMP_pressure;BME280_temperature;BME280_humidity;BME280_pressure;Samples;Min_cycle;Max_cycle;Signal;HPM_P1;HPM_P2
2021/06/30 00:02:09;;;;;;;10.53;7.00;;;14.40;99.90;;;;;;5014399;28;20588;-82
2021/06/30 00:04:37;;;;;;;13.63;7.97;;;14.40;99.90;;;;;;5015166;28;20913;-87
2021/06/30 00:07:05;;;;;;;12.07;7.63;;;14.40;99.90;;;;;;5016089;28;20209;-91
2021/06/30 00:09:31;;;;;;;9.73;7.20;;;14.40;99.90;;;;;;5021913;28;20837;-89
2021/06/30 00:12:03;;;;;;;9.03;7.20;;;14.40;99.90;;;;;;5036748;28;20230;-91
2021/06/30 00:14:31;;;;;;;8.73;7.33;;;14.40;99.90;;;;;;5035062;28;20210;-86
2021/06/30 00:16:59;;;;;;;9.93;6.73;;;14.40;99.90;;;;;;5035294;28;20932;-91
2021/06/30 00:19:27;;;;;;;8.40;6.77;;;14.40;99.90;;;;;;5035909;28;20202;-85
2021/06/30 00:21:54;;;;;;;8.77;7.33;;;14.40;99.90;;;;;;5035794;28;20198;-88
2021/06/30 00:24:22;;;;;;;13.73;7.23;;;14.40;99.90;;;;;;5025512;28;21036;-87
2021/06/30 00:26:49;;;;;;;10.27;7.27;;;14.40;99.90;;;;;;5038578;28;20203;-93
2021/06/30 00:29:16;;;;;;;8.43;7.07;;;14.40;99.90;;;;;;5032457;28;20297;-91
2021/06/30 00:31:50;;;;;;;8.90;6.10;;;14.40;99.90;;;;;;5016190;28;20694;-90
2021/06/30 00:34:17;;;;;;;7.43;6.30;;;14.40;99.90;;;;;;5024674;28;20210;-93
2021/06/30 00:36:46;;;;;;;8.27;6.90;;;14.40;99.90;;;;;;5033614;28;20212;-84
2021/06/30 00:39:15;;;;;;;8.70;6.37;;;14.40;99.90;;;;;;5035522;28;20194;-89
2021/06/30 00:41:42;;;;;;;7.13;6.03;;;14.30;99.90;;;;;;5039466;28;20230;-90
2021/06/30 00:44:12;;;;;;;7.07;6.30;;;14.30;99.90;;;;;;5055116;28;20501;-91
2021/06/30 00:46:39;;;;;;;8.77;6.23;;;14.30;99.90;;;;;;5057176;28;20210;-91
2021/06/30 00:49:09;;;;;;;6.63;5.93;;;14.20;99.90;;;;;;5055084;28;20201;-85
2021/06/30 00:51:36;;;;;;;10.57;7.03;;;14.30;99.90;;;;;;5053532;28;20217;-86
2021/06/30 00:54:03;;;;;;;10.97;6.70;;;14.30;99.90;;;;;;5053314;28;20226;-84
2021/06/30 00:56:30;;;;;;;7.63;6.53;;;14.30;99.90;;;;;;5043017;28;20690;-91
2021/06/30 00:59:01;;;;;;;7.20;6.40;;;14.30;99.90;;;;;;5032805;28;20183;-90
2021/06/30 01:01:29;;;;;;;8.73;6.40;;;14.20;99.90;;;;;;5034079;28;20217;-95
2021/06/30 01:03:56;;;;;;;8.33;6.50;;;14.20;99.90;;;;;;5052556;28;20216;-92
2021/06/30 01:06:28;;;;;;;10.63;7.33;;;14.30;99.90;;;;;;5055394;28;20286;-94
2021/06/30 01:08:56;;;;;;;8.80;7.40;;;14.30;99.90;;;;;;5054704;28;20209;-84
2021/06/30 01:11:23;;;;;;;9.03;6.67;;;14.20;99.90;;;;;;5047360;28;20762;-86
2021/06/30 01:13:56;;;;;;;7.50;6.63;;;14.20;99.90;;;;;;5034521;28;20221;-94
2021/06/30 01:16:23;;;;;;;10.47;6.70;;;14.30;99.90;;;;;;5036407;28;20206;-94
2021/06/30 01:18:50;;;;;;;7.53;6.50;;;14.20;99.90;;;;;;5036436;28;20211;-92
2021/06/30 01:21:19;;;;;;;7.40;6.70;;;14.20;99.90;;;;;;5039153;28;20229;-91
2021/06/30 01:23:48;;;;;;;9.37;6.77;;;14.20;99.90;;;;;;5035909;28;20288;-92
2021/06/30 01:26:15;;;;;;;8.00;7.13;;;14.20;99.90;;;;;;5034986;28;20305;-94
2021/06/30 01:28:43;;;;;;;9.23;7.27;;;14.20;99.90;;;;;;5039127;28;20197;-88
2021/06/30 01:31:10;;;;;;;10.33;8.23;;;14.10;99.90;;;;;;5053975;28;20266;-92
2021/06/30 01:33:37;;;;;;;9.43;7.00;;;14.20;99.90;;;;;;5055852;28;20226;-95
2021/06/30 01:36:06;;;;;;;10.20;7.40;;;14.20;99.90;;;;;;5056769;28;20586;-86
2021/06/30 01:38:37;;;;;;;10.10;7.77;;;14.20;99.90;;;;;;5055547;28;20271;-85
2021/06/30 01:41:07;;;;;;;8.83;7.47;;;14.10;99.90;;;;;;5053367;28;20206;-88
2021/06/30 01:43:34;;;;;;;11.40;7.83;;;14.20;99.90;;;;;;5053402;28;20212;-84
2021/06/30 01:46:01;;;;;;;7.97;7.17;;;14.20;99.90;;;;;;5040003;28;20217;-87
2021/06/30 01:48:28;;;;;;;11.23;7.93;;;14.10;99.90;;;;;;5031756;28;20202;-83
2021/06/30 01:50:55;;;;;;;8.87;7.47;;;14.10;99.90;;;;;;5035358;28;20301;-91
2021/06/30 01:53:22;;;;;;;10.70;8.27;;;14.10;99.90;;;;;;5034349;28;20623;-88
2021/06/30 01:55:49;;;;;;;10.03;8.17;;;14.10;99.90;;;;;;5037694;28;20531;-88
2021/06/30 01:58:23;;;;;;;10.43;9.30;;;14.10;99.90;;;;;;5053039;28;20261;-87
2021/06/30 02:00:55;;;;;;;9.27;8.00;;;14.10;99.90;;;;;;5054950;28;20198;-91
2021/06/30 02:03:22;;;;;;;10.87;8.47;;;14.10;99.90;;;;;;5055546;28;20209;-88
2021/06/30 02:05:49;;;;;;;11.80;9.20;;;14.00;99.90;;;;;;5061909;28;20229;-91
2021/06/30 02:08:17;;;;;;;11.13;8.53;;;14.10;99.90;;;;;;5063346;28;20216;-87
2021/06/30 02:10:45;;;;;;;11.17;8.37;;;14.10;99.90;;;;;;5060960;28;20232;-86
2021/06/30 02:13:12;;;;;;;9.47;7.57;;;14.10;99.90;;;;;;5052326;28;20230;-88
2021/06/30 02:15:41;;;;;;;8.87;7.27;;;14.10;99.90;;;;;;5053288;28;20205;-92
2021/06/30 02:18:09;;;;;;;11.70;7.20;;;14.00;99.90;;;;;;5052576;28;20198;-93
2021/06/30 02:20:36;;;;;;;12.67;7.53;;;13.90;99.90;;;;;;5035423;28;20221;-91
2021/06/30 02:23:03;;;;;;;12.17;6.50;;;13.90;99.90;;;;;;5040802;28;20202;-93
2021/06/30 02:25:32;;;;;;;10.90;7.67;;;13.80;99.90;;;;;;5056275;28;20202;-85
2021/06/30 02:28:00;;;;;;;9.77;7.30;;;13.80;99.90;;;;;;5053941;28;20225;-84
2021/06/30 02:30:29;;;;;;;10.40;7.60;;;13.80;99.90;;;;;;5052280;28;20514;-86
2021/06/30 02:33:00;;;;;;;12.00;7.67;;;13.80;99.90;;;;;;5042058;28;20714;-92
2021/06/30 02:35:28;;;;;;;7.27;6.20;;;13.70;99.90;;;;;;5030627;28;20292;-91
2021/06/30 02:37:58;;;;;;;9.57;6.00;;;13.70;99.90;;;;;;5030208;28;20191;-91
2021/06/30 02:40:26;;;;;;;6.23;5.30;;;13.60;99.90;;;;;;5027851;28;20237;-86
2021/06/30 02:42:54;;;;;;;7.07;5.07;;;13.50;99.90;;;;;;5028391;28;20199;-92
2021/06/30 02:45:22;;;;;;;6.60;5.70;;;13.50;99.90;;;;;;5027572;28;20202;-90
2021/06/30 02:47:50;;;;;;;6.87;5.37;;;13.50;99.90;;;;;;5028679;28;20207;-85
2021/06/30 02:50:19;;;;;;;7.53;5.67;;;13.40;99.90;;;;;;5028708;28;20210;-89
2021/06/30 02:52:47;;;;;;;8.17;4.97;;;13.50;99.90;;;;;;5029559;28;20333;-86
2021/06/30 02:55:15;;;;;;;8.03;5.10;;;13.40;99.90;;;;;;5028631;28;20554;-92
2021/06/30 02:57:42;;;;;;;5.97;4.67;;;13.40;99.90;;;;;;5029909;28;20614;-89
2021/06/30 03:00:12;;;;;;;12.07;6.23;;;13.40;99.90;;;;;;5029415;28;20869;-92
2021/06/30 03:02:39;;;;;;;8.53;5.77;;;13.40;99.90;;;;;;5031035;28;20217;-90
2021/06/30 03:05:08;;;;;;;6.00;5.20;;;13.40;99.90;;;;;;5038604;28;20213;-88
2021/06/30 03:07:37;;;;;;;7.57;5.20;;;13.40;99.90;;;;;;5067513;22;20235;-92
2021/06/30 03:10:07;;;;;;;7.87;5.43;;;13.40;99.90;;;;;;5074459;28;20213;-87
2021/06/30 03:12:34;;;;;;;7.40;5.03;;;13.40;99.90;;;;;;5080234;28;20758;-89
2021/06/30 03:15:02;;;;;;;10.17;5.47;;;13.50;99.90;;;;;;5073755;28;20197;-91
2021/06/30 03:17:34;;;;;;;9.93;6.43;;;13.50;99.90;;;;;;5074187;28;20266;-90
2021/06/30 03:20:01;;;;;;;10.30;6.00;;;13.50;99.90;;;;;;5073158;28;20201;-91
2021/06/30 03:22:29;;;;;;;9.67;6.50;;;13.60;99.90;;;;;;5073034;28;20376;-91
2021/06/30 03:24:58;;;;;;;7.70;6.10;;;13.50;99.90;;;;;;5052570;28;20252;-90
2021/06/30 03:27:25;;;;;;;9.23;6.17;;;13.60;99.90;;;;;;5043219;28;20300;-92
2021/06/30 03:29:52;;;;;;;11.27;7.00;;;13.60;99.90;;;;;;5029461;28;20206;-90
2021/06/30 03:32:19;;;;;;;11.63;7.67;;;13.60;99.90;;;;;;5029631;28;20206;-90
2021/06/30 03:34:45;;;;;;;10.50;7.57;;;13.70;99.90;;;;;;5029175;28;20447;-82
2021/06/30 03:37:12;;;;;;;10.93;7.43;;;13.70;99.90;;;;;;5030384;28;20602;-85
2021/06/30 03:39:39;;;;;;;9.00;7.37;;;13.70;99.90;;;;;;5030667;28;20646;-87
2021/06/30 03:42:08;;;;;;;13.37;8.17;;;13.60;99.90;;;;;;5045033;28;20205;-87
2021/06/30 03:44:35;;;;;;;9.07;7.50;;;13.70;99.90;;;;;;5048927;28;20204;-81
2021/06/30 03:47:01;;;;;;;10.03;7.60;;;13.70;99.90;;;;;;5049603;28;20201;-94
2021/06/30 03:49:29;;;;;;;14.23;8.20;;;13.80;99.90;;;;;;5031782;28;20210;-90
2021/06/30 03:51:56;;;;;;;15.53;9.23;;;13.80;99.90;;;;;;5028026;28;20653;-85
2021/06/30 03:54:25;;;;;;;11.70;8.00;;;13.80;99.90;;;;;;5030293;28;20249;-83
2021/06/30 03:56:52;;;;;;;15.27;7.87;;;13.70;99.90;;;;;;5030320;28;20829;-81
2021/06/30 03:59:20;;;;;;;11.80;7.53;;;13.80;99.90;;;;;;5028849;28;20252;-81
2021/06/30 04:01:47;;;;;;;9.60;7.33;;;13.70;99.90;;;;;;5028653;28;20217;-90
2021/06/30 04:04:16;;;;;;;12.00;7.60;;;13.70;99.90;;;;;;5029015;28;20629;-86
2021/06/30 04:06:43;;;;;;;11.83;7.93;;;13.70;99.90;;;;;;5030043;28;20215;-90
2021/06/30 04:09:13;;;;;;;11.90;8.37;;;13.70;99.90;;;;;;5029049;28;20203;-93
2021/06/30 04:11:41;;;;;;;10.23;7.57;;;13.80;99.90;;;;;;5038493;28;20203;-85
2021/06/30 04:14:09;;;;;;;11.83;7.83;;;13.80;99.90;;;;;;5032912;28;20249;-80
2021/06/30 04:16:37;;;;;;;11.60;7.83;;;13.80;99.90;;;;;;5026619;28;20207;-83
2021/06/30 04:19:04;;;;;;;10.77;7.60;;;13.80;99.90;;;;;;5030105;28;20221;-82
2021/06/30 04:21:31;;;;;;;9.43;7.23;;;13.80;99.90;;;;;;5047243;28;20613;-81
2021/06/30 04:23:58;;;;;;;9.07;6.83;;;13.80;99.90;;;;;;5045945;28;20241;-80
2021/06/30 04:26:25;;;;;;;10.40;7.20;;;13.80;99.90;;;;;;5027819;28;20217;-79
2021/06/30 04:28:52;;;;;;;10.30;6.37;;;13.80;99.90;;;;;;5025089;28;20195;-80
2021/06/30 04:31:19;;;;;;;8.73;6.60;;;13.80;99.90;;;;;;5035766;28;20205;-81
2021/06/30 04:33:47;;;;;;;12.10;6.80;;;13.80;99.90;;;;;;5035673;28;20229;-86
2021/06/30 04:36:15;;;;;;;12.57;6.73;;;13.80;99.90;;;;;;5031374;28;20294;-90
2021/06/30 04:38:44;;;;;;;6.63;5.83;;;13.80;99.90;;;;;;5030623;28;20385;-89
2021/06/30 04:41:11;;;;;;;8.40;5.93;;;13.80;99.90;;;;;;5029446;28;20190;-92
2021/06/30 04:43:39;;;;;;;9.50;6.60;;;13.80;99.90;;;;;;5031184;28;20198;-79
2021/06/30 04:46:06;;;;;;;9.87;7.00;;;13.80;99.90;;;;;;5030307;28;20607;-90
2021/06/30 04:48:34;;;;;;;14.00;7.13;;;13.80;99.90;;;;;;5030215;28;20207;-83
2021/06/30 04:51:02;;;;;;;11.80;7.63;;;13.80;99.90;;;;;;5030804;28;20207;-90
2021/06/30 04:53:31;;;;;;;12.53;7.40;;;13.90;99.90;;;;;;5031716;28;20234;-91
2021/06/30 04:55:58;;;;;;;12.63;7.00;;;13.90;99.90;;;;;;5032271;28;20213;-90
2021/06/30 04:58:25;;;;;;;10.30;7.13;;;13.80;99.90;;;;;;5048068;28;20209;-91
2021/06/30 05:00:54;;;;;;;8.67;6.83;;;13.80;99.90;;;;;;5050156;28;20664;-86
2021/06/30 05:03:21;;;;;;;11.27;7.37;;;13.90;99.90;;;;;;5048246;28;20586;-84
2021/06/30 05:05:48;;;;;;;12.77;8.87;;;13.90;99.90;;;;;;5031392;28;20195;-85
2021/06/30 05:08:16;;;;;;;15.13;8.73;;;13.90;99.90;;;;;;5030533;28;20583;-92
2021/06/30 05:10:43;;;;;;;14.37;8.83;;;13.90;99.90;;;;;;5031530;28;20272;-80
2021/06/30 05:13:10;;;;;;;13.57;7.80;;;13.90;99.90;;;;;;5038709;28;20788;-87
2021/06/30 05:15:37;;;;;;;13.57;8.77;;;13.90;99.90;;;;;;5051395;28;20205;-91
2021/06/30 05:18:04;;;;;;;11.37;8.97;;;13.90;99.90;;;;;;5034933;28;20210;-84
2021/06/30 05:20:33;;;;;;;13.70;8.23;;;13.90;99.90;;;;;;5031078;28;20227;-85
2021/06/30 05:23:00;;;;;;;13.83;9.20;;;13.90;99.90;;;;;;5031647;28;20216;-87
2021/06/30 05:25:29;;;;;;;14.67;9.43;;;14.00;99.90;;;;;;5032308;28;20213;-85
2021/06/30 05:27:55;;;;;;;11.70;9.33;;;14.00;99.90;;;;;;5033010;28;20213;-87
2021/06/30 05:30:22;;;;;;;12.53;8.70;;;14.00;99.90;;;;;;5034153;28;20211;-88
2021/06/30 05:32:49;;;;;;;12.87;9.70;;;14.00;99.90;;;;;;5049689;28;20217;-83
2021/06/30 05:35:16;;;;;;;17.93;9.83;;;14.00;99.90;;;;;;5055470;28;20221;-85
2021/06/30 05:37:43;;;;;;;14.87;9.70;;;14.10;99.90;;;;;;5044991;28;20210;-83
2021/06/30 05:40:11;;;;;;;12.47;8.37;;;14.10;99.90;;;;;;5038762;28;20209;-82
2021/06/30 05:42:41;;;;;;;13.07;9.03;;;14.10;99.90;;;;;;5030441;28;20195;-85
2021/06/30 05:45:09;;;;;;;10.77;8.47;;;14.10;99.90;;;;;;5030176;28;20289;-92
2021/06/30 05:47:35;;;;;;;13.77;9.37;;;14.10;99.90;;;;;;5029895;28;20641;-82
2021/06/30 05:50:02;;;;;;;14.57;10.07;;;14.10;99.90;;;;;;5049473;28;20213;-83
2021/06/30 05:52:29;;;;;;;12.30;8.37;;;14.20;99.90;;;;;;5052939;28;20658;-86
2021/06/30 05:54:56;;;;;;;11.53;8.37;;;14.20;99.90;;;;;;5029640;28;20223;-84
2021/06/30 05:57:23;;;;;;;14.07;8.53;;;14.20;99.90;;;;;;5044042;28;20645;-88
2021/06/30 05:59:52;;;;;;;10.00;8.00;;;14.20;99.90;;;;;;5050478;28;20198;-91
2021/06/30 06:02:19;;;;;;;9.07;7.67;;;14.20;99.90;;;;;;5046961;28;20206;-89
2021/06/30 06:04:47;;;;;;;11.33;7.37;;;14.20;99.90;;;;;;5050480;28;20610;-82
2021/06/30 06:07:14;;;;;;;12.73;8.93;;;14.20;99.90;;;;;;5048938;28;20238;-89
2021/06/30 06:09:41;;;;;;;12.77;8.43;;;14.20;99.90;;;;;;5050470;28;20272;-89
2021/06/30 06:12:09;;;;;;;15.83;8.97;;;14.20;99.90;;;;;;5043196;28;20603;-88
2021/06/30 06:14:36;;;;;;;9.40;7.83;;;14.20;99.90;;;;;;5028794;28;20225;-84
2021/06/30 06:17:04;;;;;;;12.97;8.70;;;14.20;99.90;;;;;;5029443;28;20206;-90
2021/06/30 06:19:33;;;;;;;17.03;9.77;;;14.20;99.90;;;;;;5029330;28;20206;-89
2021/06/30 06:22:00;;;;;;;9.87;8.47;;;14.20;99.90;;;;;;5029826;28;20209;-84
2021/06/30 06:24:28;;;;;;;15.27;8.23;;;14.30;99.90;;;;;;5028328;28;20219;-88
2021/06/30 06:26:55;;;;;;;13.53;8.60;;;14.30;99.90;;;;;;5027862;28;20202;-81
2021/06/30 06:29:23;;;;;;;14.27;8.70;;;14.30;99.90;;;;;;5011528;28;20638;-82
2021/06/30 06:31:50;;;;;;;13.83;8.60;;;14.30;99.90;;;;;;5028295;28;20289;-88
2021/06/30 06:34:20;;;;;;;12.23;8.93;;;14.30;99.90;;;;;;5027617;28;20222;-89
2021/06/30 06:36:47;;;;;;;15.47;9.97;;;14.30;99.90;;;;;;5028444;28;20608;-88
2021/06/30 06:39:16;;;;;;;10.40;8.87;;;14.30;99.90;;;;;;5026789;28;20206;-83
2021/06/30 06:41:43;;;;;;;14.67;9.33;;;14.30;99.90;;;;;;5028976;28;20204;-84
2021/06/30 06:44:11;;;;;;;11.03;7.37;;;14.40;99.90;;;;;;5026848;28;20206;-89
2021/06/30 06:46:39;;;;;;;14.83;8.37;;;14.40;99.90;;;;;;5028266;28;20210;-86
2021/06/30 06:49:07;;;;;;;12.53;8.40;;;14.40;99.90;;;;;;5041185;28;20617;-79
2021/06/30 06:51:35;;;;;;;17.13;8.27;;;14.40;99.90;;;;;;5068114;28;20215;-83
2021/06/30 06:54:02;;;;;;;9.93;7.60;;;14.40;99.90;;;;;;5048594;28;20250;-82
2021/06/30 06:56:29;;;;;;;18.17;8.07;;;14.50;99.90;;;;;;5035658;28;20204;-81
2021/06/30 06:58:56;;;;;;;14.77;9.10;;;14.40;99.90;;;;;;5024064;28;20213;-82
2021/06/30 07:01:24;;;;;;;15.57;8.40;;;14.50;99.90;;;;;;5029276;28;20237;-79
2021/06/30 07:03:51;;;;;;;14.33;9.00;;;14.50;99.90;;;;;;5022927;28;20198;-79
2021/06/30 07:06:18;;;;;;;16.17;8.67;;;14.50;99.90;;;;;;5023132;28;20203;-79
2021/06/30 07:08:46;;;;;;;16.93;9.87;;;14.50;99.90;;;;;;5025351;28;20231;-87
2021/06/30 07:11:13;;;;;;;15.87;8.43;;;14.50;99.90;;;;;;5029481;28;20199;-81
2021/06/30 07:13:40;;;;;;;12.37;8.50;;;14.50;99.90;;;;;;5028793;28;20668;-87
2021/06/30 07:16:10;;;;;;;14.80;8.17;;;14.60;99.90;;;;;;5024517;28;20222;-88
2021/06/30 07:18:38;;;;;;;15.00;8.10;;;14.60;99.90;;;;;;5028682;28;20195;-84
2021/06/30 07:21:06;;;;;;;15.43;8.30;;;14.60;99.90;;;;;;5029981;28;20202;-89
2021/06/30 07:23:33;;;;;;;12.77;8.30;;;14.60;99.90;;;;;;5043152;28;20260;-89
2021/06/30 07:26:03;;;;;;;13.90;8.70;;;14.60;99.90;;;;;;5048236;28;20205;-85
2021/06/30 07:28:30;;;;;;;15.73;8.23;;;14.70;99.90;;;;;;5049799;28;20222;-81
2021/06/30 07:30:57;;;;;;;18.27;8.63;;;14.70;99.90;;;;;;5047604;28;20196;-85
2021/06/30 07:33:24;;;;;;;11.73;7.20;;;14.70;99.90;;;;;;5028323;28;20587;-84
2021/06/30 07:35:52;;;;;;;12.97;7.93;;;14.70;99.90;;;;;;5034737;28;20229;-87
2021/06/30 07:38:18;;;;;;;9.87;7.90;;;14.70;99.90;;;;;;5048591;28;20186;-86
2021/06/30 07:40:52;;;;;;;10.63;8.70;;;14.80;99.90;;;;;;5048339;28;20197;-87
2021/06/30 07:43:20;;;;;;;11.73;6.90;;;14.70;99.90;;;;;;5032784;28;20195;-83
2021/06/30 07:45:47;;;;;;;12.57;7.40;;;14.70;99.90;;;;;;5064338;28;20205;-83
2021/06/30 07:48:21;;;;;;;10.43;7.47;;;14.80;99.90;;;;;;5068489;28;20201;-83
2021/06/30 07:50:48;;;;;;;13.30;6.77;;;14.80;99.90;;;;;;5063269;28;20212;-84
2021/06/30 07:53:16;;;;;;;7.80;6.97;;;14.90;99.90;;;;;;5049069;28;20197;-82
2021/06/30 07:55:45;;;;;;;12.40;7.50;;;14.80;99.90;;;;;;5048865;28;20225;-82
2021/06/30 07:58:11;;;;;;;10.17;6.70;;;14.90;99.90;;;;;;5048038;28;20288;-85
2021/06/30 08:00:42;;;;;;;8.27;6.60;;;14.80;99.90;;;;;;5044236;28;20214;-88
2021/06/30 08:03:09;;;;;;;12.73;6.50;;;14.90;99.90;;;;;;5028264;28;20210;-83
2021/06/30 08:05:35;;;;;;;7.60;6.03;;;14.90;99.90;;;;;;5041880;28;20210;-81
2021/06/30 08:08:02;;;;;;;8.97;6.87;;;15.00;99.90;;;;;;5052296;28;20226;-86
2021/06/30 08:10:30;;;;;;;9.53;6.77;;;15.00;99.90;;;;;;5048994;28;20210;-83
2021/06/30 08:12:57;;;;;;;10.43;6.80;;;15.00;99.90;;;;;;5045610;28;20282;-81
2021/06/30 08:15:26;;;;;;;9.17;6.43;;;15.00;99.90;;;;;;5031245;28;20222;-87
2021/06/30 08:17:54;;;;;;;10.80;7.10;;;15.00;99.90;;;;;;5029305;28;20194;-80
2021/06/30 08:20:21;;;;;;;12.30;6.43;;;15.00;99.90;;;;;;5027909;28;20198;-81
2021/06/30 08:22:48;;;;;;;8.27;5.90;;;15.10;99.90;;;;;;5031289;28;20326;-81
2021/06/30 08:25:16;;;;;;;9.53;6.30;;;15.00;99.90;;;;;;5041017;28;20222;-85
2021/06/30 08:27:43;;;;;;;7.80;5.50;;;15.00;99.90;;;;;;5034016;28;20205;-86
2021/06/30 08:30:11;;;;;;;8.60;5.77;;;15.00;99.90;;;;;;5032544;28;20199;-86
2021/06/30 08:32:40;;;;;;;9.77;5.93;;;15.10;99.90;;;;;;5032481;28;20211;-87
2021/06/30 08:35:10;;;;;;;8.90;5.43;;;15.00;99.90;;;;;;5032352;28;20226;-88
2021/06/30 08:37:41;;;;;;;6.63;4.97;;;15.00;99.90;;;;;;5045260;28;20218;-85
2021/06/30 08:40:10;;;;;;;9.37;5.90;;;15.10;99.90;;;;;;5051444;28;20736;-88
2021/06/30 08:42:37;;;;;;;13.23;5.97;;;15.10;99.90;;;;;;5051374;28;20194;-83
2021/06/30 08:45:05;;;;;;;9.57;5.50;;;15.10;99.90;;;;;;5043071;28;20509;-86
2021/06/30 08:47:35;;;;;;;9.57;5.10;;;15.10;99.90;;;;;;5032494;28;20219;-86
2021/06/30 08:50:06;;;;;;;8.10;5.10;;;15.10;99.90;;;;;;5041609;28;20209;-81
2021/06/30 08:52:35;;;;;;;10.30;4.57;;;15.10;99.90;;;;;;5049714;28;20213;-82
2021/06/30 08:55:03;;;;;;;7.30;5.20;;;15.20;99.90;;;;;;5050239;28;20225;-82
2021/06/30 08:57:31;;;;;;;5.50;4.20;;;15.30;99.90;;;;;;5051314;28;20213;-86
2021/06/30 08:59:58;;;;;;;6.77;3.63;;;15.30;99.90;;;;;;5036027;28;20518;-87
2021/06/30 09:02:26;;;;;;;6.33;3.90;;;15.30;99.90;;;;;;5030563;28;20199;-81
2021/06/30 09:05:00;;;;;;;4.57;4.17;;;15.30;99.90;;;;;;5032320;28;20187;-86
2021/06/30 09:07:27;;;;;;;4.83;4.03;;;15.40;99.90;;;;;;5029931;28;20645;-82
2021/06/30 09:09:55;;;;;;;8.30;4.17;;;15.50;99.90;;;;;;5029537;28;20218;-85
2021/06/30 09:12:37;;;;;;;7.60;4.20;;;15.60;99.90;;;;;;5029704;28;20202;-83
2021/06/30 09:15:16;;;;;;;7.07;4.30;;;15.80;99.90;;;;;;5029985;28;20266;-83
2021/06/30 09:17:43;;;;;;;4.20;3.80;;;15.90;99.90;;;;;;5031468;28;20210;-85
2021/06/30 09:20:11;;;;;;;5.73;4.30;;;16.00;99.90;;;;;;5030963;28;20575;-83
2021/06/30 09:22:51;;;;;;;4.40;3.70;;;16.10;99.90;;;;;;5029801;28;20206;-82
2021/06/30 09:25:41;;;;;;;4.95;3.70;;;16.20;99.90;;;;;;5028643;28;20280;-82
2021/06/30 09:28:14;;;;;;;6.13;3.50;;;16.30;99.90;;;;;;5027082;28;20202;-82
2021/06/30 09:30:56;;;;;;;5.33;3.60;;;16.20;99.90;;;;;;5031658;28;20202;-81
2021/06/30 09:33:22;;;;;;;6.60;3.00;;;16.30;99.90;;;;;;5028249;28;20202;-83
2021/06/30 09:36:01;;;;;;;6.57;3.17;;;16.30;99.90;;;;;;5026607;28;20222;-81
2021/06/30 09:38:30;;;;;;;5.50;2.77;;;16.30;99.90;;;;;;5026932;28;20205;-82
2021/06/30 09:40:59;;;;;;;10.38;3.67;;;16.30;99.90;;;;;;5037250;28;20519;-82
2021/06/30 09:43:29;;;;;;;9.50;3.42;;;16.30;99.90;;;;;;5035108;28;20206;-83
2021/06/30 09:45:58;;;;;;;6.05;3.03;;;16.40;99.90;;;;;;5032848;28;20215;-82
2021/06/30 09:48:33;;;;;;;4.70;3.00;;;16.40;99.90;;;;;;5028055;28;20198;-87
2021/06/30 09:51:02;;;;;;;4.55;3.10;;;16.50;99.90;;;;;;5055916;28;20208;-88
2021/06/30 09:53:39;;;;;;;5.40;2.83;;;16.50;99.90;;;;;;5073323;28;20198;-80
2021/06/30 09:56:12;;;;;;;6.40;3.13;;;16.60;99.90;;;;;;5046855;28;20265;-84
2021/06/30 09:58:39;;;;;;;7.85;3.47;;;16.60;99.90;;;;;;5028926;28;20222;-83
2021/06/30 10:01:16;;;;;;;3.45;3.15;;;16.60;99.90;;;;;;5031869;28;20903;-85
2021/06/30 10:03:43;;;;;;;4.72;3.40;;;16.60;99.90;;;;;;5032720;28;20217;-81
2021/06/30 10:06:30;;;;;;;6.05;3.25;;;16.60;99.90;;;;;;5030717;28;20210;-82
2021/06/30 10:08:58;;;;;;;5.43;4.03;;;16.60;99.90;;;;;;5028860;28;20269;-84
2021/06/30 10:11:27;;;;;;;6.80;3.13;;;16.50;99.90;;;;;;5029934;28;20218;-85
2021/06/30 10:13:55;;;;;;;5.70;3.38;;;16.50;99.90;;;;;;5031986;28;20256;-87
2021/06/30 10:16:23;;;;;;;5.30;3.50;;;16.40;99.90;;;;;;5034227;28;20227;-89
2021/06/30 10:18:52;;;;;;;7.15;3.60;;;16.40;99.90;;;;;;5034087;28;20207;-85
2021/06/30 10:21:23;;;;;;;7.10;3.55;;;16.40;99.90;;;;;;5051243;28;20365;-88
2021/06/30 10:23:50;;;;;;;5.63;3.38;;;16.40;99.90;;;;;;5046394;28;20233;-86
2021/06/30 10:26:19;;;;;;;6.80;3.80;;;16.30;99.90;;;;;;5030140;28;20203;-87
2021/06/30 10:28:55;;;;;;;8.73;4.35;;;16.40;99.90;;;;;;5027571;28;20210;-88
2021/06/30 10:31:23;;;;;;;6.30;3.80;;;16.30;99.90;;;;;;5044065;28;20216;-83
2021/06/30 10:33:58;;;;;;;9.25;4.15;;;16.30;99.90;;;;;;5047413;28;20205;-87
2021/06/30 10:36:44;;;;;;;5.18;3.85;;;16.20;99.90;;;;;;5027499;28;20603;-86
2021/06/30 10:39:13;;;;;;;7.60;4.88;;;16.20;99.90;;;;;;5026613;28;20209;-85
2021/06/30 10:41:42;;;;;;;7.97;5.00;;;16.20;99.90;;;;;;5027187;28;20213;-84
2021/06/30 10:44:17;;;;;;;5.50;4.63;;;16.20;99.90;;;;;;5026265;28;20206;-84
2021/06/30 10:46:45;;;;;;;9.38;4.75;;;16.20;99.90;;;;;;5026298;28;20198;-85
2021/06/30 10:49:26;;;;;;;7.68;5.97;;;16.20;99.90;;;;;;5025045;28;20218;-83
2021/06/30 10:51:56;;;;;;;9.18;5.18;;;16.20;99.90;;;;;;5025016;28;20366;-84
2021/06/30 10:54:44;;;;;;;5.97;4.82;;;16.20;99.90;;;;;;5026850;28;20221;-84
2021/06/30 10:57:24;;;;;;;5.93;4.07;;;16.30;99.90;;;;;;5029626;28;20215;-86
2021/06/30 11:00:18;;;;;;;7.88;4.38;;;16.30;99.90;;;;;;5038576;28;20209;-85
2021/06/30 11:02:45;;;;;;;8.30;4.67;;;16.30;99.90;;;;;;5048829;28;20299;-85
2021/06/30 11:05:33;;;;;;;7.20;4.13;;;16.40;99.90;;;;;;5030531;28;20222;-81
2021/06/30 11:08:00;;;;;;;7.53;4.63;;;16.40;99.90;;;;;;5028225;28;20333;-84
2021/06/30 11:10:50;;;;;;;7.72;4.50;;;16.50;99.90;;;;;;5028661;28;20203;-86
2021/06/30 11:13:17;;;;;;;7.97;4.50;;;16.50;99.90;;;;;;5028536;28;20206;-87
2021/06/30 11:15:45;;;;;;;5.67;4.07;;;16.60;99.90;;;;;;5027825;28;20224;-84
2021/06/30 11:18:46;;;;;;;9.30;3.95;;;16.50;99.90;;;;;;5024266;28;20591;-85
2021/06/30 11:21:15;;;;;;;6.32;3.78;;;16.40;99.90;;;;;;5028812;28;20253;-85
2021/06/30 11:23:44;;;;;;;6.75;4.30;;;16.30;99.90;;;;;;5029268;28;20545;-85
2021/06/30 11:26:35;;;;;;;7.63;4.30;;;16.30;99.90;;;;;;5026586;28;20206;-84
2021/06/30 11:29:02;;;;;;;4.82;3.83;;;16.30;99.90;;;;;;5025142;28;20252;-81
2021/06/30 11:31:40;;;;;;;5.60;3.95;;;16.30;99.90;;;;;;5023580;28;20217;-83
2021/06/30 11:34:20;;;;;;;6.53;4.37;;;16.20;99.90;;;;;;5022786;28;20195;-82
2021/06/30 11:36:47;;;;;;;7.88;4.60;;;16.30;99.90;;;;;;5023599;28;20240;-78
2021/06/30 11:39:17;;;;;;;6.22;3.85;;;16.30;99.90;;;;;;5023065;28;20713;-79
2021/06/30 11:41:44;;;;;;;6.83;4.23;;;16.30;99.90;;;;;;5032940;28;20210;-79
2021/06/30 11:44:11;;;;;;;5.97;4.38;;;16.30;99.90;;;;;;5027786;28;20276;-81
2021/06/30 11:46:41;;;;;;;6.43;4.17;;;16.30;99.90;;;;;;5029667;28;20194;-80
2021/06/30 11:49:11;;;;;;;7.33;5.37;;;16.20;99.90;;;;;;5027678;28;20206;-82
2021/06/30 11:51:38;;;;;;;11.27;5.70;;;16.20;99.90;;;;;;5050069;22;20268;-80
2021/06/30 11:54:13;;;;;;;10.80;5.60;;;16.20;99.90;;;;;;5046431;28;20213;-79
2021/06/30 11:56:41;;;;;;;11.15;6.18;;;16.10;99.90;;;;;;5045698;28;20249;-79
2021/06/30 11:59:15;;;;;;;12.30;6.57;;;16.10;99.90;;;;;;5063494;28;20511;-78
2021/06/30 12:01:44;;;;;;;10.80;5.70;;;16.10;99.90;;;;;;5066324;28;20223;-78
2021/06/30 12:04:13;;;;;;;10.73;5.55;;;16.00;99.90;;;;;;5064843;28;20803;-80
2021/06/30 12:06:41;;;;;;;8.32;5.93;;;15.90;99.90;;;;;;5059309;28;20309;-78
2021/06/30 12:09:12;;;;;;;10.52;5.82;;;15.90;99.90;;;;;;5045531;28;20206;-81
2021/06/30 12:11:42;;;;;;;8.20;5.65;;;15.90;99.90;;;;;;5049591;28;20202;-79
2021/06/30 12:14:11;;;;;;;12.20;6.60;;;15.80;99.90;;;;;;5063531;28;20213;-79
2021/06/30 12:16:50;;;;;;;6.90;5.77;;;15.80;99.90;;;;;;5067664;28;20221;-79
2021/06/30 12:19:19;;;;;;;10.73;6.03;;;15.70;99.90;;;;;;5068925;28;20189;-83
2021/06/30 12:21:48;;;;;;;8.50;6.33;;;15.70;99.90;;;;;;5048455;28;20201;-80
2021/06/30 12:24:17;;;;;;;11.33;7.43;;;15.60;99.90;;;;;;5047407;28;20891;-81
2021/06/30 12:27:05;;;;;;;14.57;6.97;;;15.60;99.90;;;;;;5049331;28;20225;-85
2021/06/30 12:29:34;;;;;;;12.37;7.00;;;15.60;99.90;;;;;;5028095;28;20217;-85
2021/06/30 12:32:03;;;;;;;14.83;7.83;;;15.60;99.90;;;;;;5026888;28;20276;-81
2021/06/30 12:34:30;;;;;;;11.60;7.07;;;15.60;99.90;;;;;;5026990;28;20392;-80
2021/06/30 12:36:58;;;;;;;11.57;6.90;;;15.60;99.90;;;;;;5045251;28;20240;-81
2021/06/30 12:39:27;;;;;;;9.93;7.10;;;15.60;99.90;;;;;;5046842;28;20194;-81
2021/06/30 12:42:00;;;;;;;12.52;6.85;;;15.70;99.90;;;;;;5046852;28;20287;-80
2021/06/30 12:44:29;;;;;;;11.53;7.43;;;15.70;99.90;;;;;;5047708;28;20520;-79
2021/06/30 12:47:11;;;;;;;12.20;7.03;;;15.70;99.90;;;;;;5047810;28;20269;-79
2021/06/30 12:49:38;;;;;;;11.80;6.30;;;15.70;99.90;;;;;;5060883;28;20925;-79
2021/06/30 12:52:06;;;;;;;10.93;7.10;;;15.70;99.90;;;;;;5066114;28;20245;-78
2021/06/30 12:54:33;;;;;;;13.17;7.53;;;15.70;99.90;;;;;;5062214;28;20208;-83